Hlavní strana
METAR-TAF:

METAR-TAF

Letiště :

Utti, Finsko

zeměpisná šířka: 60-54N, zeměpisná délka: 026-56E, výška: 100 m

Aktuální stav počasí

Zpráva byla vytvořena před 8 minutami, v 22:20 UTC
Severozápadní vítr 7 kt, proměnlivý mezi západním a severním
Teplota -1°C
Vlhkost vzduchu 80%
Tlak 1002 hPa
Viditelnost 10 km a více
Oblačno až skoro zataženo ve výšce 800 ft
Oblačno až skoro zataženo ve výšce 3400 ft
Oblačno až skoro zataženo ve výšce 7100 ft
slabé sněžení

METAR: EFUT 252220Z AUTO 32007KT 280V350 9999 -SN BKN008 BKN034 BKN071 M01/M04 Q1002

Čas: 00:28 (22:28 UTC)

Předpověď počasí

Zpráva byla vytvořena před 10 hodinami a 51 minutami, v 11:37 UTC
Předpověď platná od 25 v 12 UTC do 25 v 14 UTC
Západoseverozápadní vítr 6 kt
Viditelnost 10 km a více
Oblačno až skoro zataženo ve výšce 3500 ft
Dočasný
od 25 v 12 UTC do 25 v 14 UTC
Viditelnost: 4000 m
Polojasno ve výšce 3500 ft, Cumulonimbus.
slabé sněhové přeháňky

TAF: EFUT 251137Z 2512/2514 30006KT 9999 BKN035 TEMPO 2512/2514 4000 -SHSN SCT035CB

Stav a předpovědi počasí z více než 4 000 letišť (zprávy METAR a TAF).

Červené a žluté tečky na mapě představují dostupné meteorologické stanice.

Když kurzor umístíte na tečku, zobrazí se název stanice.

Pak kliknutím zobrazíte stav a předpověď počasí.

Chcete-li změnit mapu, kliknutím na zelené tlačítko se znaménkem +mapu přiblížíte, kliknutím na zelené tlačítko se znaménkem – mapu oddálíte a kliknutím na zelené šipky přejdete na sousední mapy.


METAR-TAF: